createdAt,value
2023-09-29T00:02:48.490Z,11.97
2023-09-29T00:07:52.812Z,12.03
2023-09-29T00:12:55.754Z,12.20
2023-09-29T00:18:00.370Z,12.70
2023-09-29T00:23:04.181Z,12.27
2023-09-29T00:28:07.636Z,11.57
2023-09-29T00:33:12.318Z,12.50
2023-09-29T00:38:15.274Z,12.30
2023-09-29T00:43:18.479Z,12.70
2023-09-29T00:48:24.098Z,11.83
2023-09-29T00:53:29.875Z,11.23
2023-09-29T00:58:33.027Z,11.27
2023-09-29T01:03:37.385Z,12.33
2023-09-29T01:08:41.078Z,13.17
2023-09-29T01:13:43.991Z,11.40
2023-09-29T01:18:48.444Z,11.43
2023-09-29T01:23:52.868Z,12.27
2023-09-29T01:28:55.881Z,10.90
2023-09-29T01:33:59.252Z,10.67
2023-09-29T01:39:04.784Z,12.97
2023-09-29T01:44:08.111Z,12.07
2023-09-29T01:49:11.140Z,12.27
2023-09-29T01:54:15.547Z,12.70
2023-09-29T01:59:18.676Z,11.97
2023-09-29T02:04:21.745Z,11.90
2023-09-29T02:09:27.555Z,11.83
2023-09-29T02:14:31.202Z,12.70
2023-09-29T02:19:37.359Z,13.70
2023-09-29T02:24:41.629Z,11.53
2023-09-29T02:29:44.537Z,12.17
2023-09-29T02:34:47.514Z,11.70
2023-09-29T02:39:51.935Z,12.73
2023-09-29T02:44:54.906Z,12.83
2023-09-29T02:49:59.922Z,12.63
2023-09-29T02:55:05.788Z,11.83
2023-09-29T03:00:12.754Z,11.57
2023-09-29T03:05:17.247Z,11.23
2023-09-29T03:10:22.152Z,10.87
2023-09-29T03:15:25.692Z,11.00
2023-09-29T03:20:29.263Z,12.40
2023-09-29T03:25:34.029Z,12.77
2023-09-29T03:30:36.949Z,14.30
2023-09-29T03:35:39.996Z,13.93
2023-09-29T03:40:46.102Z,11.90
2023-09-29T03:45:50.635Z,12.40
2023-09-29T03:50:55.210Z,12.90
2023-09-29T03:55:59.496Z,11.60
2023-09-29T04:01:03.607Z,13.93
2023-09-29T04:06:06.727Z,13.60
2023-09-29T04:11:11.901Z,13.00
2023-09-29T04:16:15.417Z,15.10
2023-09-29T04:21:20.422Z,15.27
2023-09-29T04:26:24.883Z,12.63
2023-09-29T04:31:28.276Z,14.63
2023-09-29T04:36:31.705Z,14.57
2023-09-29T04:41:38.040Z,14.83
2023-09-29T04:46:43.260Z,13.70
2023-09-29T04:51:46.484Z,15.43
2023-09-29T04:56:50.814Z,14.43
2023-09-29T05:01:53.829Z,15.40
2023-09-29T05:06:56.754Z,13.63
2023-09-29T05:12:02.934Z,16.33
2023-09-29T05:17:05.882Z,13.97
2023-09-29T05:22:08.965Z,13.70
2023-09-29T05:27:13.380Z,14.90
2023-09-29T05:32:16.358Z,15.87
2023-09-29T05:37:19.718Z,13.67
2023-09-29T05:42:33.583Z,13.90
2023-09-29T05:47:44.169Z,14.10
2023-09-29T05:52:59.648Z,14.77
2023-09-29T05:58:08.814Z,13.13
2023-09-29T06:03:11.745Z,15.20
2023-09-29T06:08:14.647Z,14.37
2023-09-29T06:13:18.931Z,15.63
2023-09-29T06:18:21.846Z,14.60
2023-09-29T06:23:24.760Z,13.37
2023-09-29T06:28:29.227Z,14.70
2023-09-29T06:33:32.606Z,14.60
2023-09-29T06:38:35.739Z,13.47
2023-09-29T06:43:41.192Z,15.57
2023-09-29T06:48:45.287Z,16.00
2023-09-29T06:53:49.614Z,15.00
2023-09-29T06:58:56.021Z,13.50
2023-09-29T07:04:01.747Z,14.53
2023-09-29T07:09:08.099Z,13.60
2023-09-29T07:14:13.104Z,13.33
2023-09-29T07:19:16.099Z,11.30
2023-09-29T07:24:19.128Z,13.07
2023-09-29T07:29:23.562Z,11.50
2023-09-29T07:34:28.616Z,12.37
2023-09-29T07:39:31.589Z,14.30
2023-09-29T07:44:35.897Z,11.10
2023-09-29T07:49:41.669Z,12.80
2023-09-29T07:54:44.654Z,13.77
2023-09-29T07:59:48.972Z,13.50
2023-09-29T08:04:51.897Z,12.40
2023-09-29T08:09:54.873Z,12.40
2023-09-29T08:14:59.203Z,12.03
2023-09-29T08:20:02.176Z,11.57
2023-09-29T08:25:09.164Z,10.80
2023-09-29T08:30:14.318Z,8.97
2023-09-29T08:35:17.320Z,10.00
2023-09-29T08:40:20.406Z,9.90
2023-09-29T08:45:31.077Z,9.83
2023-09-29T08:50:35.468Z,9.00
2023-09-29T08:55:39.651Z,9.43
2023-09-29T09:00:48.515Z,8.90
2023-09-29T09:05:54.907Z,9.47
2023-09-29T09:11:01.746Z,11.10
2023-09-29T09:16:08.691Z,10.77
2023-09-29T09:21:13.611Z,10.50
2023-09-29T09:26:17.749Z,10.03
2023-09-29T09:31:22.308Z,8.93
2023-09-29T09:36:25.437Z,8.33
2023-09-29T09:41:28.381Z,8.73
2023-09-29T09:46:39.401Z,8.60
2023-09-29T09:51:48.773Z,8.77
2023-09-29T09:57:02.687Z,8.83
2023-09-29T10:02:08.908Z,7.37
2023-09-29T10:07:13.103Z,7.23
2023-09-29T10:12:25.988Z,8.27
2023-09-29T10:17:41.623Z,8.60
2023-09-29T10:22:44.793Z,7.80
2023-09-29T10:27:50.680Z,7.60
2023-09-29T10:33:06.721Z,9.00
2023-09-29T10:38:13.738Z,8.07
2023-09-29T10:43:19.887Z,7.40
2023-09-29T10:48:26.108Z,8.03
2023-09-29T10:53:38.401Z,6.67
2023-09-29T10:58:42.104Z,7.10
2023-09-29T11:03:47.253Z,7.10
2023-09-29T11:08:55.132Z,7.10
2023-09-29T11:13:59.421Z,8.00
2023-09-29T11:19:12.404Z,6.77
2023-09-29T11:24:20.282Z,7.00
2023-09-29T11:29:24.182Z,7.70
2023-09-29T11:34:30.975Z,7.13
2023-09-29T11:39:35.201Z,7.33
2023-09-29T11:44:38.236Z,7.40
2023-09-29T11:49:42.722Z,6.97
2023-09-29T11:54:51.463Z,7.67
2023-09-29T11:59:55.303Z,8.77
2023-09-29T12:04:59.813Z,7.13
2023-09-29T12:10:02.816Z,6.33
2023-09-29T12:15:06.726Z,6.77
2023-09-29T12:20:14.960Z,6.00
2023-09-29T12:25:18.328Z,6.37
2023-09-29T12:30:23.098Z,7.00
2023-09-29T12:35:27.937Z,6.33
2023-09-29T12:40:30.850Z,6.80
2023-09-29T12:45:34.101Z,6.47
2023-09-29T12:50:40.001Z,7.20
2023-09-29T12:55:43.149Z,6.70
2023-09-29T13:00:46.067Z,6.17
2023-09-29T13:05:50.382Z,6.43
2023-09-29T13:10:53.378Z,6.50
2023-09-29T13:15:56.871Z,5.70
2023-09-29T13:21:01.226Z,6.60
2023-09-29T13:26:05.178Z,5.77
2023-09-29T13:31:08.070Z,6.37
2023-09-29T13:36:12.558Z,5.30
2023-09-29T13:41:15.519Z,5.13
2023-09-29T13:46:18.552Z,6.47
2023-09-29T13:51:23.022Z,5.20
2023-09-29T13:56:26.874Z,5.60
2023-09-29T14:01:29.839Z,6.30
2023-09-29T14:06:34.441Z,5.40
2023-09-29T14:11:37.499Z,6.20
2023-09-29T14:16:40.395Z,5.63
2023-09-29T14:21:46.686Z,6.10
2023-09-29T14:26:50.098Z,7.40
2023-09-29T14:31:53.459Z,7.17
2023-09-29T14:36:57.813Z,7.10
2023-09-29T14:42:00.796Z,5.80
2023-09-29T14:47:03.697Z,6.20
2023-09-29T14:52:07.987Z,6.30
2023-09-29T14:57:11.346Z,6.70
2023-09-29T15:02:14.255Z,7.10
2023-09-29T15:07:18.693Z,6.70
2023-09-29T15:12:23.798Z,8.70
2023-09-29T15:17:29.293Z,7.13
2023-09-29T15:22:33.665Z,6.77
2023-09-29T15:27:36.586Z,6.23
2023-09-29T15:32:39.615Z,7.57
2023-09-29T15:37:45.073Z,6.80
2023-09-29T15:42:48.111Z,6.13
2023-09-29T15:47:51.072Z,7.23
2023-09-29T15:52:55.413Z,7.53
2023-09-29T15:57:58.394Z,7.23
2023-09-29T16:03:01.383Z,6.90
2023-09-29T16:08:06.354Z,7.60
2023-09-29T16:13:13.783Z,7.03
2023-09-29T16:18:16.792Z,7.90
2023-09-29T16:23:22.056Z,7.20
2023-09-29T16:28:24.980Z,7.73
2023-09-29T16:33:27.947Z,7.70
2023-09-29T16:38:32.290Z,7.00
2023-09-29T16:43:35.438Z,7.90
2023-09-29T16:48:38.431Z,7.23
2023-09-29T16:53:43.664Z,7.93
2023-09-29T16:58:46.572Z,7.40
2023-09-29T17:03:49.754Z,7.70
2023-09-29T17:08:56.460Z,8.30
2023-09-29T17:13:59.639Z,8.90
2023-09-29T17:19:02.514Z,8.60
2023-09-29T17:24:08.523Z,9.00
2023-09-29T17:29:12.760Z,8.63
2023-09-29T17:34:17.728Z,8.57
2023-09-29T17:39:24.387Z,10.67
2023-09-29T17:44:29.999Z,9.80
2023-09-29T17:49:36.091Z,9.90
2023-09-29T17:54:43.242Z,9.50
2023-09-29T17:59:48.823Z,9.80
2023-09-29T18:04:54.485Z,9.03
2023-09-29T18:10:02.727Z,9.60
2023-09-29T18:15:09.281Z,9.90
2023-09-29T18:20:17.146Z,9.00
2023-09-29T18:25:24.383Z,8.43
2023-09-29T18:30:30.381Z,11.03
2023-09-29T18:35:37.783Z,10.47
2023-09-29T18:40:47.624Z,9.30
2023-09-29T18:46:01.428Z,9.20
2023-09-29T18:51:08.188Z,10.10
2023-09-29T18:56:19.900Z,10.10
2023-09-29T19:01:28.509Z,10.87
2023-09-29T19:06:34.281Z,10.47
2023-09-29T19:11:43.452Z,9.63
2023-09-29T19:16:49.173Z,9.33
2023-09-29T19:21:54.943Z,9.80
2023-09-29T19:27:02.885Z,9.00
2023-09-29T19:32:10.523Z,8.03
2023-09-29T19:37:16.170Z,10.10
2023-09-29T19:42:25.289Z,8.57
2023-09-29T19:47:30.952Z,9.30
2023-09-29T19:52:38.816Z,10.10
2023-09-29T19:57:48.888Z,9.70
2023-09-29T20:02:54.775Z,8.63
2023-09-29T20:08:00.530Z,9.63
2023-09-29T20:13:08.522Z,9.40
2023-09-29T20:18:14.322Z,9.40
2023-09-29T20:23:22.822Z,8.53
2023-09-29T20:28:30.452Z,10.13
2023-09-29T20:33:36.476Z,10.23
2023-09-29T20:38:41.523Z,9.60
2023-09-29T20:43:47.423Z,9.10
2023-09-29T20:48:51.010Z,9.47
2023-09-29T20:53:54.085Z,7.83
2023-09-29T20:58:58.835Z,9.07
2023-09-29T21:04:07.503Z,8.37
2023-09-29T21:09:10.941Z,9.97
2023-09-29T21:14:17.041Z,9.33
2023-09-29T21:19:20.188Z,11.17
2023-09-29T21:24:23.124Z,9.60
2023-09-29T21:29:27.937Z,9.83
2023-09-29T21:34:30.982Z,10.37
2023-09-29T21:39:33.911Z,10.23
2023-09-29T21:44:38.133Z,10.83
2023-09-29T21:49:41.076Z,10.13
2023-09-29T21:54:43.951Z,11.07
2023-09-29T21:59:48.272Z,10.37
2023-09-29T22:04:51.161Z,9.67
2023-09-29T22:09:54.535Z,10.20
2023-09-29T22:15:00.932Z,14.17
2023-09-29T22:20:04.597Z,13.07
2023-09-29T22:25:08.401Z,12.53
2023-09-29T22:30:13.679Z,14.07
2023-09-29T22:35:16.827Z,11.43
2023-09-29T22:40:19.741Z,13.00
2023-09-29T22:45:24.361Z,13.70
2023-09-29T22:50:27.790Z,12.60
2023-09-29T22:55:31.355Z,13.60
2023-09-29T23:00:35.689Z,13.23
2023-09-29T23:05:38.660Z,13.17
2023-09-29T23:10:43.626Z,13.30
2023-09-29T23:15:48.059Z,12.93
2023-09-29T23:20:52.125Z,12.30
2023-09-29T23:25:55.410Z,12.10
2023-09-29T23:31:00.584Z,10.73
2023-09-29T23:36:05.627Z,10.03
2023-09-29T23:41:09.650Z,10.90
2023-09-29T23:46:14.071Z,10.20
2023-09-29T23:51:17.063Z,10.20
2023-09-29T23:56:20.131Z,11.07
